Time;durP1;ratioP1;P1;durP2;ratioP2;P2;SDS_P1;SDS_P2;PMS_P1;PMS_P2;Temp;Humidity;BMP_temperature;BMP_pressure;BME280_temperature;BME280_humidity;BME280_pressure;Samples;Min_cycle;Max_cycle;Signal;HPM_P1;HPM_P2
2024/04/06 00:02:23;;;;;;;0.40;0.40;;;17.20;88.30;;;;;;4987392;28;20598;-79
2024/04/06 00:04:48;;;;;;;0.40;0.40;;;17.20;88.20;;;;;;5004141;28;20050;-79
2024/04/06 00:07:14;;;;;;;0.40;0.40;;;17.20;88.20;;;;;;5015775;28;20057;-79
2024/04/06 00:09:40;;;;;;;0.50;0.50;;;17.20;88.10;;;;;;5033541;28;20049;-79
2024/04/06 00:12:05;;;;;;;0.40;0.40;;;17.10;87.70;;;;;;4971698;28;20087;-79
2024/04/06 00:14:31;;;;;;;0.60;0.40;;;17.20;87.60;;;;;;4985570;28;20420;-79
2024/04/06 00:16:57;;;;;;;0.40;0.40;;;17.20;87.30;;;;;;5004430;28;20183;-79
2024/04/06 00:19:22;;;;;;;0.40;0.40;;;17.30;87.70;;;;;;4985538;28;20497;-79
2024/04/06 00:21:48;;;;;;;0.52;0.32;;;17.30;87.30;;;;;;5003292;28;20058;-79
2024/04/06 00:24:13;;;;;;;0.70;0.50;;;17.30;87.40;;;;;;4971713;28;20054;-79
2024/04/06 00:26:39;;;;;;;1.10;0.40;;;17.30;87.60;;;;;;4983048;28;20068;-79
2024/04/06 00:29:04;;;;;;;0.55;0.40;;;17.20;87.60;;;;;;4988886;28;20104;-79
2024/04/06 00:31:30;;;;;;;0.22;0.22;;;17.20;87.70;;;;;;5004564;28;20037;-79
2024/04/06 00:34:01;;;;;;;0.40;0.40;;;17.20;87.80;;;;;;5004659;28;20129;-79
2024/04/06 00:36:27;;;;;;;1.05;0.40;;;17.20;87.60;;;;;;5005054;28;20411;-79
2024/04/06 00:38:53;;;;;;;0.55;0.40;;;17.20;87.90;;;;;;5003759;28;20042;-79
2024/04/06 00:41:19;;;;;;;0.57;0.57;;;17.20;87.80;;;;;;5003283;28;20038;-79
2024/04/06 00:43:44;;;;;;;0.30;0.30;;;17.20;87.70;;;;;;4987945;28;20057;-79
2024/04/06 00:46:10;;;;;;;1.02;0.30;;;17.20;87.50;;;;;;5004577;28;20157;-79
2024/04/06 00:48:35;;;;;;;0.50;0.50;;;17.20;87.70;;;;;;5013069;28;20519;-79
2024/04/06 00:51:04;;;;;;;0.30;0.30;;;17.20;87.50;;;;;;5012066;28;20054;-79
2024/04/06 00:53:30;;;;;;;0.47;0.47;;;17.10;87.40;;;;;;5005967;28;20072;-79
2024/04/06 00:55:56;;;;;;;0.95;0.70;;;17.10;87.60;;;;;;5000233;28;20120;-79
2024/04/06 00:58:21;;;;;;;0.50;0.50;;;17.20;87.10;;;;;;5016736;28;20738;-79
2024/04/06 01:00:47;;;;;;;0.40;0.40;;;17.10;87.60;;;;;;4999580;28;20041;-79
2024/04/06 01:03:12;;;;;;;1.33;0.40;;;17.10;87.30;;;;;;5003246;28;20458;-79
2024/04/06 01:05:38;;;;;;;0.60;0.60;;;17.10;87.10;;;;;;5002455;28;20058;-78
2024/04/06 01:08:04;;;;;;;0.60;0.45;;;17.10;87.20;;;;;;5003605;28;20040;-79
2024/04/06 01:10:29;;;;;;;0.65;0.40;;;17.10;87.30;;;;;;5004294;28;20046;-79
2024/04/06 01:12:55;;;;;;;0.30;0.30;;;17.20;87.40;;;;;;4987662;28;20045;-78
2024/04/06 01:15:20;;;;;;;0.32;0.30;;;17.10;87.30;;;;;;5016578;28;20435;-79
2024/04/06 01:17:46;;;;;;;0.30;0.30;;;17.10;87.20;;;;;;5003836;28;20042;-78
2024/04/06 01:20:12;;;;;;;0.30;0.20;;;17.10;87.30;;;;;;4987215;28;20034;-79
2024/04/06 01:22:37;;;;;;;0.40;0.40;;;17.10;87.00;;;;;;5002462;28;20042;-79
2024/04/06 01:25:04;;;;;;;0.30;0.30;;;17.10;87.50;;;;;;5017256;28;20510;-78
2024/04/06 01:27:30;;;;;;;0.30;0.30;;;17.10;87.70;;;;;;5012793;28;20136;-79
2024/04/06 01:29:56;;;;;;;0.50;0.50;;;17.10;87.20;;;;;;4986110;28;20038;-78
2024/04/06 01:32:21;;;;;;;0.43;0.35;;;17.10;87.20;;;;;;5002332;28;20052;-79
2024/04/06 01:34:47;;;;;;;0.32;0.32;;;17.10;87.00;;;;;;4986273;28;20058;-79
2024/04/06 01:37:15;;;;;;;0.65;0.40;;;17.10;86.90;;;;;;5032173;28;20660;-79
2024/04/06 01:39:40;;;;;;;0.95;0.60;;;17.10;87.00;;;;;;5001108;28;20881;-78
2024/04/06 01:42:06;;;;;;;0.50;0.50;;;17.10;87.40;;;;;;5003462;28;20072;-78
2024/04/06 01:44:31;;;;;;;0.77;0.50;;;17.00;87.10;;;;;;5003462;28;20046;-78
2024/04/06 01:46:58;;;;;;;0.40;0.40;;;17.10;86.90;;;;;;5004161;28;20510;-78
2024/04/06 01:49:23;;;;;;;0.40;0.40;;;17.10;87.10;;;;;;4984466;28;20140;-78
2024/04/06 01:51:49;;;;;;;0.57;0.57;;;17.10;87.10;;;;;;5004137;28;20579;-78
2024/04/06 01:54:14;;;;;;;0.50;0.50;;;17.10;87.00;;;;;;5003589;28;20503;-78
2024/04/06 01:56:40;;;;;;;0.38;0.38;;;17.10;87.10;;;;;;5001798;28;20045;-78
2024/04/06 01:59:05;;;;;;;0.40;0.40;;;17.10;87.20;;;;;;5002226;28;20515;-78
2024/04/06 02:01:31;;;;;;;0.32;0.32;;;17.10;86.90;;;;;;5013301;28;20038;-78
2024/04/06 02:03:57;;;;;;;0.77;0.40;;;17.10;87.10;;;;;;5006666;28;20042;-78
2024/04/06 02:06:23;;;;;;;0.50;0.50;;;17.10;87.00;;;;;;5038177;28;20432;-78
2024/04/06 02:08:48;;;;;;;0.47;0.30;;;17.00;86.80;;;;;;4990801;28;20041;-78
2024/04/06 02:11:14;;;;;;;0.30;0.30;;;17.10;87.10;;;;;;4988337;28;20490;-78
2024/04/06 02:13:40;;;;;;;1.10;0.50;;;17.10;87.20;;;;;;4973109;28;20056;-78
2024/04/06 02:16:05;;;;;;;0.30;0.30;;;17.00;87.10;;;;;;4986681;28;20103;-78
2024/04/06 02:18:31;;;;;;;0.30;0.30;;;17.00;87.00;;;;;;5005558;28;20038;-78
2024/04/06 02:20:56;;;;;;;0.52;0.52;;;17.00;87.10;;;;;;5005500;28;20048;-78
2024/04/06 02:23:22;;;;;;;0.50;0.50;;;17.00;87.20;;;;;;5004404;28;20038;-79
2024/04/06 02:25:48;;;;;;;1.65;0.65;;;17.00;87.10;;;;;;5006886;28;20050;-78
2024/04/06 02:28:13;;;;;;;0.47;0.47;;;17.10;87.10;;;;;;5034790;28;20026;-79
2024/04/06 02:30:39;;;;;;;0.40;0.40;;;17.00;87.00;;;;;;5004717;28;20427;-79
2024/04/06 02:33:05;;;;;;;0.85;0.65;;;17.00;87.20;;;;;;5004005;28;20407;-78
2024/04/06 02:35:30;;;;;;;0.60;0.60;;;17.00;87.10;;;;;;5005927;28;20046;-78
2024/04/06 02:37:56;;;;;;;0.65;0.57;;;17.00;87.30;;;;;;4987599;28;20048;-78
2024/04/06 02:40:21;;;;;;;0.40;0.40;;;17.00;87.10;;;;;;5019601;28;20573;-78
2024/04/06 02:42:47;;;;;;;0.38;0.38;;;17.00;86.90;;;;;;5007940;28;20053;-78
2024/04/06 02:45:13;;;;;;;0.40;0.40;;;17.00;87.70;;;;;;5005007;28;20136;-78
2024/04/06 02:47:38;;;;;;;0.60;0.60;;;17.00;87.20;;;;;;4986257;28;20530;-78
2024/04/06 02:50:05;;;;;;;0.70;0.70;;;17.10;87.10;;;;;;5013972;28;20058;-78
2024/04/06 02:52:30;;;;;;;0.45;0.45;;;17.00;87.50;;;;;;5017237;28;20050;-79
2024/04/06 02:54:56;;;;;;;1.58;0.30;;;17.00;87.20;;;;;;4995124;28;20043;-78
2024/04/06 02:57:22;;;;;;;0.45;0.45;;;17.00;87.20;;;;;;5005902;28;20060;-78
2024/04/06 02:59:47;;;;;;;0.30;0.30;;;17.00;87.10;;;;;;5006498;28;20034;-79
2024/04/06 03:02:13;;;;;;;0.57;0.57;;;17.00;87.40;;;;;;4976092;28;20041;-80
2024/04/06 03:04:40;;;;;;;0.50;0.50;;;17.00;87.20;;;;;;5006714;28;20029;-80
2024/04/06 03:07:06;;;;;;;0.38;0.38;;;17.00;87.20;;;;;;5004153;28;20088;-80
2024/04/06 03:09:35;;;;;;;0.50;0.50;;;17.00;87.20;;;;;;5006020;28;20714;-79
2024/04/06 03:12:04;;;;;;;0.60;0.50;;;17.00;87.10;;;;;;4987007;28;20044;-79
2024/04/06 03:14:30;;;;;;;0.38;0.38;;;17.00;87.10;;;;;;5004797;28;20042;-80
2024/04/06 03:16:56;;;;;;;0.40;0.40;;;17.00;87.30;;;;;;5004118;28;20050;-80
2024/04/06 03:19:21;;;;;;;0.40;0.40;;;17.00;87.50;;;;;;4989534;28;20067;-80
2024/04/06 03:21:48;;;;;;;0.40;0.40;;;17.00;87.50;;;;;;4987951;28;20034;-80
2024/04/06 03:24:13;;;;;;;0.43;0.40;;;17.00;87.40;;;;;;4973935;28;20077;-80
2024/04/06 03:26:44;;;;;;;0.60;0.40;;;17.00;87.20;;;;;;5033194;28;20069;-80
2024/04/06 03:29:10;;;;;;;1.95;0.60;;;17.00;87.50;;;;;;5004636;28;20073;-80
2024/04/06 03:31:35;;;;;;;0.40;0.40;;;17.00;87.60;;;;;;5005087;28;20503;-80
2024/04/06 03:34:01;;;;;;;0.40;0.40;;;17.00;87.50;;;;;;5002573;28;20062;-80
2024/04/06 03:36:27;;;;;;;0.75;0.40;;;17.00;87.60;;;;;;5005305;28;20041;-80
2024/04/06 03:38:52;;;;;;;0.32;0.32;;;17.00;87.60;;;;;;4987521;28;20109;-79
2024/04/06 03:41:18;;;;;;;0.40;0.40;;;17.00;87.50;;;;;;5014008;28;20447;-80
2024/04/06 03:43:43;;;;;;;1.25;0.70;;;17.00;88.00;;;;;;5005649;28;20100;-80
2024/04/06 03:46:09;;;;;;;0.88;0.60;;;17.00;87.40;;;;;;5003575;28;20507;-79
2024/04/06 03:48:34;;;;;;;0.47;0.47;;;17.00;88.00;;;;;;5008092;28;20088;-79
2024/04/06 03:51:00;;;;;;;0.50;0.40;;;17.00;87.60;;;;;;5016309;28;20038;-79
2024/04/06 03:53:33;;;;;;;0.38;0.38;;;17.00;87.50;;;;;;5005497;28;20103;-79
2024/04/06 03:55:59;;;;;;;0.52;0.40;;;17.00;87.50;;;;;;4991503;28;20049;-79
2024/04/06 03:58:25;;;;;;;0.60;0.57;;;17.00;87.70;;;;;;5005436;28;20096;-79
2024/04/06 04:00:51;;;;;;;0.75;0.38;;;17.00;87.40;;;;;;5004497;28;20121;-79
2024/04/06 04:03:16;;;;;;;0.40;0.40;;;17.00;87.40;;;;;;5032957;28;20128;-79
2024/04/06 04:05:42;;;;;;;0.40;0.40;;;17.00;87.70;;;;;;5028578;28;20412;-79
2024/04/06 04:08:07;;;;;;;0.40;0.40;;;17.00;87.60;;;;;;5032048;28;20081;-79
2024/04/06 04:10:35;;;;;;;0.30;0.30;;;17.00;87.60;;;;;;5031659;28;20534;-79
2024/04/06 04:13:01;;;;;;;1.70;0.40;;;17.00;87.70;;;;;;5004856;28;20046;-80
2024/04/06 04:15:26;;;;;;;0.77;0.40;;;17.00;87.70;;;;;;5003873;28;20045;-79
2024/04/06 04:17:52;;;;;;;0.45;0.45;;;17.00;87.70;;;;;;5004321;28;20118;-79
2024/04/06 04:20:18;;;;;;;2.17;0.50;;;17.00;87.60;;;;;;5004150;28;20042;-80
2024/04/06 04:22:44;;;;;;;1.02;0.43;;;17.00;87.80;;;;;;4989634;28;20124;-79
2024/04/06 04:25:10;;;;;;;0.30;0.30;;;17.00;87.60;;;;;;5000692;28;20066;-79
2024/04/06 04:27:35;;;;;;;0.30;0.30;;;17.00;87.80;;;;;;4988821;28;20036;-79
2024/04/06 04:30:01;;;;;;;0.40;0.40;;;17.00;87.70;;;;;;5002569;28;20038;-79
2024/04/06 04:32:26;;;;;;;0.45;0.45;;;17.00;87.50;;;;;;5003236;28;20056;-79
2024/04/06 04:34:52;;;;;;;0.30;0.30;;;17.00;87.60;;;;;;5003623;28;20049;-79
2024/04/06 04:37:17;;;;;;;0.40;0.40;;;17.00;87.50;;;;;;5003800;28;20038;-78
2024/04/06 04:39:43;;;;;;;0.40;0.40;;;17.00;87.70;;;;;;5006838;28;20054;-78
2024/04/06 04:42:09;;;;;;;0.25;0.25;;;17.00;87.40;;;;;;5002291;28;20092;-79
2024/04/06 04:44:34;;;;;;;0.40;0.40;;;17.00;87.60;;;;;;4984690;28;20500;-80
2024/04/06 04:47:00;;;;;;;0.52;0.45;;;17.00;87.60;;;;;;5030295;28;20046;-79
2024/04/06 04:49:25;;;;;;;0.43;0.40;;;17.00;87.40;;;;;;4967950;28;20046;-79
2024/04/06 04:51:51;;;;;;;0.52;0.30;;;17.00;87.70;;;;;;5004096;28;20108;-80
2024/04/06 04:54:18;;;;;;;0.85;0.40;;;17.00;87.50;;;;;;5002624;28;20080;-80
2024/04/06 04:56:43;;;;;;;0.35;0.35;;;17.00;87.40;;;;;;5004345;28;20034;-80
2024/04/06 04:59:09;;;;;;;0.30;0.30;;;17.00;87.50;;;;;;4969710;28;20060;-80
2024/04/06 05:01:34;;;;;;;0.43;0.40;;;17.00;87.50;;;;;;5029398;28;20046;-79
2024/04/06 05:04:00;;;;;;;0.38;0.35;;;17.00;87.50;;;;;;5002423;28;20467;-79
2024/04/06 05:06:25;;;;;;;0.60;0.35;;;17.00;87.70;;;;;;5000987;28;20045;-79
2024/04/06 05:08:51;;;;;;;0.30;0.30;;;17.00;87.50;;;;;;4987028;28;20037;-79
2024/04/06 05:11:17;;;;;;;0.60;0.50;;;17.00;87.40;;;;;;4988121;28;20051;-79
2024/04/06 05:13:42;;;;;;;0.20;0.20;;;17.00;87.80;;;;;;4996026;28;20043;-79
2024/04/06 05:16:08;;;;;;;0.45;0.40;;;17.00;87.60;;;;;;5015937;28;20077;-79
2024/04/06 05:18:33;;;;;;;1.35;0.30;;;17.00;87.50;;;;;;5021546;28;20038;-79
2024/04/06 05:21:00;;;;;;;0.40;0.30;;;17.00;87.50;;;;;;5013704;28;20038;-79
2024/04/06 05:23:27;;;;;;;0.38;0.38;;;17.00;87.30;;;;;;5004652;28;20052;-80
2024/04/06 05:25:53;;;;;;;0.70;0.32;;;16.90;87.30;;;;;;5017655;28;20164;-80
2024/04/06 05:28:20;;;;;;;0.30;0.30;;;17.00;87.30;;;;;;5003618;28;20042;-80
2024/04/06 05:30:46;;;;;;;0.28;0.28;;;17.00;87.20;;;;;;5005527;28;20046;-79
2024/04/06 05:33:13;;;;;;;0.30;0.30;;;17.00;87.40;;;;;;5000763;28;20046;-79
2024/04/06 05:35:40;;;;;;;0.20;0.20;;;17.00;87.40;;;;;;5004083;28;20566;-79
2024/04/06 05:38:06;;;;;;;0.30;0.30;;;17.00;87.10;;;;;;4989865;28;20036;-80
2024/04/06 05:40:32;;;;;;;0.40;0.40;;;17.00;87.30;;;;;;5006139;28;20041;-80
2024/04/06 05:42:57;;;;;;;0.30;0.30;;;17.00;87.10;;;;;;5006961;28;20516;-80
2024/04/06 05:45:23;;;;;;;0.77;0.40;;;17.00;86.90;;;;;;5034394;28;20101;-79
2024/04/06 05:47:50;;;;;;;0.45;0.45;;;17.00;87.10;;;;;;4990384;28;20470;-80
2024/04/06 05:50:15;;;;;;;0.38;0.30;;;17.00;87.10;;;;;;4986487;28;20054;-80
2024/04/06 05:52:41;;;;;;;0.40;0.40;;;17.00;87.20;;;;;;5018037;28;20052;-80
2024/04/06 05:55:06;;;;;;;0.30;0.30;;;17.00;87.30;;;;;;4990007;28;20426;-80
2024/04/06 05:57:32;;;;;;;0.30;0.20;;;17.00;87.30;;;;;;5007870;28;20041;-80
2024/04/06 05:59:58;;;;;;;0.30;0.30;;;17.00;87.20;;;;;;5016587;28;20454;-80
2024/04/06 06:02:23;;;;;;;0.50;0.40;;;17.00;87.20;;;;;;4991716;28;20118;-80
2024/04/06 06:04:49;;;;;;;0.52;0.40;;;17.00;87.00;;;;;;4993143;28;20054;-80
2024/04/06 06:07:14;;;;;;;0.30;0.20;;;17.00;87.40;;;;;;4990728;28;20125;-80
2024/04/06 06:09:40;;;;;;;0.35;0.35;;;17.00;87.20;;;;;;5006583;28;20136;-80
2024/04/06 06:12:06;;;;;;;0.30;0.20;;;17.00;87.30;;;;;;5004911;28;20038;-79
2024/04/06 06:14:31;;;;;;;0.40;0.40;;;17.00;87.30;;;;;;4987881;28;20084;-80
2024/04/06 06:16:57;;;;;;;0.57;0.30;;;17.00;87.50;;;;;;4988521;28;20053;-80
2024/04/06 06:19:23;;;;;;;1.67;0.40;;;17.00;87.50;;;;;;4988584;28;20437;-80
2024/04/06 06:21:48;;;;;;;0.20;0.20;;;17.00;87.60;;;;;;5005886;28;20045;-79
2024/04/06 06:24:14;;;;;;;0.28;0.28;;;17.00;87.50;;;;;;5013760;28;20046;-80
2024/04/06 06:26:39;;;;;;;0.30;0.22;;;17.00;87.50;;;;;;5005689;28;20042;-80
2024/04/06 06:29:05;;;;;;;0.20;0.20;;;17.00;87.50;;;;;;5005053;28;20563;-80
2024/04/06 06:31:30;;;;;;;0.32;0.30;;;17.00;87.50;;;;;;5003180;28;20080;-80
2024/04/06 06:33:57;;;;;;;0.30;0.30;;;17.00;87.30;;;;;;5014280;28;20075;-80
2024/04/06 06:36:23;;;;;;;1.55;0.40;;;17.00;87.40;;;;;;5004552;28;20061;-80
2024/04/06 06:38:49;;;;;;;0.30;0.25;;;17.00;87.30;;;;;;4987433;28;20065;-80
2024/04/06 06:41:14;;;;;;;0.40;0.40;;;17.10;87.10;;;;;;5029727;28;20112;-81
2024/04/06 06:43:40;;;;;;;0.70;0.30;;;17.10;87.00;;;;;;4998648;28;20050;-80
2024/04/06 06:46:06;;;;;;;0.43;0.20;;;17.20;87.20;;;;;;5006441;28;20041;-80
2024/04/06 06:48:31;;;;;;;0.30;0.30;;;17.10;87.10;;;;;;5013372;28;20044;-81
2024/04/06 06:50:57;;;;;;;0.30;0.17;;;17.10;87.00;;;;;;5032556;28;20041;-80
2024/04/06 06:53:22;;;;;;;0.20;0.20;;;17.20;86.90;;;;;;4987073;28;20050;-80
2024/04/06 06:55:48;;;;;;;0.30;0.25;;;17.20;87.00;;;;;;4972111;28;20038;-80
2024/04/06 06:58:14;;;;;;;0.20;0.20;;;17.20;86.60;;;;;;4985616;28;20120;-80
2024/04/06 07:00:45;;;;;;;1.30;0.30;;;17.20;87.50;;;;;;5003324;28;20061;-80
2024/04/06 07:03:11;;;;;;;0.40;0.30;;;17.20;87.20;;;;;;5003951;28;20394;-80
2024/04/06 07:05:36;;;;;;;0.57;0.30;;;17.20;87.00;;;;;;5029452;28;20595;-80
2024/04/06 07:08:02;;;;;;;0.40;0.40;;;17.20;87.20;;;;;;5005555;28;20084;-80
2024/04/06 07:10:27;;;;;;;0.20;0.20;;;17.30;87.20;;;;;;5004491;28;20086;-80
2024/04/06 07:12:53;;;;;;;0.40;0.30;;;17.30;87.10;;;;;;4968022;28;20041;-81
2024/04/06 07:15:18;;;;;;;0.40;0.40;;;17.30;86.90;;;;;;5003612;28;20057;-80
2024/04/06 07:17:44;;;;;;;0.28;0.28;;;17.30;86.70;;;;;;5032781;28;20064;-80
2024/04/06 07:20:10;;;;;;;0.35;0.30;;;17.40;86.60;;;;;;5003712;28;20049;-80
2024/04/06 07:22:37;;;;;;;0.60;0.40;;;17.40;86.70;;;;;;4983730;28;20515;-79
2024/04/06 07:25:03;;;;;;;0.20;0.20;;;17.50;86.80;;;;;;5017422;28;20140;-79
2024/04/06 07:27:29;;;;;;;0.57;0.57;;;17.40;86.50;;;;;;5015264;28;22118;-79
2024/04/06 07:29:54;;;;;;;0.30;0.30;;;17.40;86.80;;;;;;5003585;28;20038;-79
2024/04/06 07:32:20;;;;;;;0.40;0.30;;;17.40;87.10;;;;;;4968927;28;20535;-79
2024/04/06 07:34:46;;;;;;;1.55;0.50;;;17.50;86.70;;;;;;5034697;28;21382;-79
2024/04/06 07:37:11;;;;;;;0.20;0.20;;;17.40;87.20;;;;;;5029970;28;20140;-79
2024/04/06 07:39:37;;;;;;;1.90;0.30;;;17.50;87.30;;;;;;5033271;28;20647;-79
2024/04/06 07:42:03;;;;;;;0.90;0.50;;;17.50;87.60;;;;;;5032616;28;20052;-81
2024/04/06 07:44:29;;;;;;;2.33;0.65;;;17.60;86.50;;;;;;4984075;28;20066;-79
2024/04/06 07:46:54;;;;;;;1.08;0.70;;;17.60;86.50;;;;;;4987974;28;20104;-81
2024/04/06 07:49:20;;;;;;;1.15;0.80;;;17.60;86.60;;;;;;5013459;28;20045;-80
2024/04/06 07:51:45;;;;;;;0.80;0.60;;;17.60;86.60;;;;;;4655104;28;10000495;-80
2024/04/06 07:54:12;;;;;;;0.70;0.50;;;17.60;87.10;;;;;;4983292;28;20054;-80
2024/04/06 07:56:38;;;;;;;0.70;0.50;;;17.60;86.80;;;;;;4967870;28;20023;-80
2024/04/06 07:59:03;;;;;;;2.78;0.50;;;17.60;86.80;;;;;;5014974;28;20134;-80
2024/04/06 08:01:30;;;;;;;1.00;0.50;;;17.60;87.10;;;;;;4984974;28;20050;-80
2024/04/06 08:03:55;;;;;;;1.58;0.55;;;17.60;86.90;;;;;;4983789;28;20048;-80
2024/04/06 08:06:21;;;;;;;1.25;0.55;;;17.60;87.20;;;;;;5001472;28;20035;-80
2024/04/06 08:08:46;;;;;;;0.63;0.60;;;17.60;87.20;;;;;;5001109;28;20073;-80
2024/04/06 08:11:12;;;;;;;0.77;0.50;;;17.60;87.20;;;;;;5002571;28;20084;-80
2024/04/06 08:13:38;;;;;;;1.35;0.60;;;17.60;87.30;;;;;;4983910;28;20041;-80
2024/04/06 08:16:04;;;;;;;0.75;0.60;;;17.70;86.90;;;;;;5001234;28;20515;-79
2024/04/06 08:18:30;;;;;;;2.28;0.50;;;17.60;87.20;;;;;;4985993;28;20041;-79
2024/04/06 08:20:55;;;;;;;0.90;0.50;;;17.70;86.90;;;;;;5000402;28;20054;-80
2024/04/06 08:23:21;;;;;;;1.35;0.73;;;17.70;87.20;;;;;;4969784;28;20045;-80
2024/04/06 08:25:50;;;;;;;0.73;0.47;;;17.70;86.90;;;;;;4985695;28;20400;-80
2024/04/06 08:28:15;;;;;;;0.98;0.60;;;17.70;86.90;;;;;;4983175;28;20042;-80
2024/04/06 08:30:41;;;;;;;1.05;0.80;;;17.80;86.90;;;;;;4988205;28;20053;-80
2024/04/06 08:33:06;;;;;;;0.65;0.52;;;17.80;87.50;;;;;;5003752;28;20050;-80
2024/04/06 08:35:36;;;;;;;0.98;0.80;;;17.70;86.80;;;;;;4972410;28;20038;-80
2024/04/06 08:38:02;;;;;;;1.42;0.50;;;17.70;87.00;;;;;;4972396;28;20037;-79
2024/04/06 08:40:28;;;;;;;1.83;0.65;;;17.70;87.00;;;;;;4984223;28;20042;-80
2024/04/06 08:42:54;;;;;;;0.90;0.50;;;17.70;87.10;;;;;;4987849;28;20049;-80
2024/04/06 08:45:21;;;;;;;2.08;0.98;;;17.70;87.10;;;;;;4987874;28;20044;-80
2024/04/06 08:47:46;;;;;;;1.70;0.45;;;17.70;87.20;;;;;;4986100;28;20057;-80
2024/04/06 08:50:13;;;;;;;1.85;0.57;;;17.70;87.00;;;;;;4970522;28;20042;-80
2024/04/06 08:52:39;;;;;;;0.80;0.65;;;17.70;87.20;;;;;;5004143;28;20049;-80
2024/04/06 08:55:09;;;;;;;1.15;0.88;;;17.70;86.90;;;;;;4986962;28;20555;-80
2024/04/06 08:57:35;;;;;;;1.23;0.65;;;17.70;87.10;;;;;;5003695;28;20072;-80
2024/04/06 09:00:07;;;;;;;0.90;0.80;;;17.80;87.30;;;;;;5005340;28;20117;-80
2024/04/06 09:02:33;;;;;;;1.48;1.00;;;17.70;87.00;;;;;;4967555;28;20109;-80
2024/04/06 09:04:58;;;;;;;0.93;0.70;;;17.70;86.90;;;;;;4983865;28;20046;-80
2024/04/06 09:07:24;;;;;;;0.90;0.68;;;17.70;87.10;;;;;;4984524;28;20041;-80
2024/04/06 09:09:50;;;;;;;0.90;0.80;;;17.80;87.10;;;;;;4972022;28;20038;-80
2024/04/06 09:12:16;;;;;;;1.48;0.85;;;17.80;87.10;;;;;;5007647;28;20555;-80
2024/04/06 09:14:44;;;;;;;1.10;0.60;;;17.80;86.90;;;;;;4976298;28;21027;-80
2024/04/06 09:17:09;;;;;;;0.90;0.75;;;17.80;86.90;;;;;;4988626;28;20096;-80
2024/04/06 09:19:35;;;;;;;1.27;1.08;;;17.80;86.90;;;;;;5038616;28;20046;-80
2024/04/06 09:22:01;;;;;;;1.08;0.70;;;17.80;87.40;;;;;;5006062;28;20165;-80
2024/04/06 09:24:27;;;;;;;0.88;0.68;;;17.70;87.30;;;;;;5033847;28;20068;-80
2024/04/06 09:27:06;;;;;;;1.95;0.70;;;17.80;87.30;;;;;;5007044;28;20065;-80
2024/04/06 09:29:32;;;;;;;1.52;0.80;;;17.80;87.50;;;;;;5006246;28;20468;-80
2024/04/06 09:32:00;;;;;;;2.35;0.90;;;17.70;88.40;;;;;;4990962;28;20480;-80
2024/04/06 09:34:27;;;;;;;2.47;0.98;;;17.70;87.80;;;;;;4988753;28;20053;-79
2024/04/06 09:36:56;;;;;;;1.20;0.60;;;17.70;87.60;;;;;;4991148;28;20066;-80
2024/04/06 09:39:22;;;;;;;1.23;0.80;;;17.70;87.70;;;;;;4989141;28;20152;-80
2024/04/06 09:41:47;;;;;;;1.70;0.90;;;17.70;87.80;;;;;;4992265;28;20600;-80
2024/04/06 09:44:13;;;;;;;1.83;1.20;;;17.70;87.80;;;;;;4975321;28;20060;-80
2024/04/06 09:46:38;;;;;;;2.88;1.27;;;17.70;87.90;;;;;;5007162;28;20420;-80
2024/04/06 09:49:04;;;;;;;2.88;1.65;;;17.70;88.00;;;;;;5035613;28;20054;-80
2024/04/06 09:51:30;;;;;;;4.05;1.80;;;17.70;88.10;;;;;;5019679;28;20048;-80
2024/04/06 09:53:55;;;;;;;3.58;1.88;;;17.80;87.90;;;;;;4992663;28;20049;-80
2024/04/06 09:56:21;;;;;;;2.45;1.83;;;17.70;87.70;;;;;;4990389;28;20038;-80
2024/04/06 09:58:47;;;;;;;3.88;2.50;;;17.80;87.70;;;;;;4990266;28;20403;-80
2024/04/06 10:01:16;;;;;;;3.05;2.03;;;17.80;88.00;;;;;;5003863;28;20042;-80
2024/04/06 10:03:48;;;;;;;3.72;2.25;;;17.80;88.50;;;;;;5008633;28;20069;-81
2024/04/06 10:06:17;;;;;;;4.63;2.40;;;17.80;88.10;;;;;;5006650;28;20053;-79
2024/04/06 10:08:50;;;;;;;2.78;2.20;;;17.80;88.20;;;;;;4989536;28;20592;-79
2024/04/06 10:11:23;;;;;;;3.08;1.88;;;17.80;88.30;;;;;;5006585;28;20072;-79
2024/04/06 10:13:58;;;;;;;2.97;2.00;;;17.80;88.10;;;;;;5004809;28;20046;-80
2024/04/06 10:16:31;;;;;;;4.10;2.25;;;17.80;88.50;;;;;;4987193;28;20041;-80
2024/04/06 10:19:00;;;;;;;5.30;2.17;;;17.80;88.50;;;;;;5034716;28;20108;-80
2024/04/06 10:21:26;;;;;;;2.78;2.13;;;17.80;88.50;;;;;;5031653;28;20121;-80
2024/04/06 10:23:53;;;;;;;4.72;2.33;;;17.80;88.30;;;;;;5003330;28;20046;-79
2024/04/06 10:26:20;;;;;;;3.78;2.05;;;17.80;88.20;;;;;;5005675;28;20450;-79
2024/04/06 10:28:46;;;;;;;3.25;2.58;;;17.80;87.80;;;;;;5021804;28;20042;-79
2024/04/06 10:31:12;;;;;;;3.08;2.30;;;17.80;88.00;;;;;;4988357;28;20041;-79
2024/04/06 10:33:41;;;;;;;3.42;2.55;;;17.80;88.20;;;;;;5007251;28;20046;-79
2024/04/06 10:36:10;;;;;;;4.38;2.45;;;17.80;88.20;;;;;;5003276;28;20054;-79
2024/04/06 10:38:36;;;;;;;7.35;3.10;;;17.90;87.90;;;;;;5005396;28;20041;-80
2024/04/06 10:41:03;;;;;;;5.75;3.08;;;17.90;87.40;;;;;;5033307;28;20042;-80
2024/04/06 10:43:35;;;;;;;4.55;3.17;;;18.00;87.40;;;;;;5006336;28;20068;-79
2024/04/06 10:46:02;;;;;;;3.83;2.90;;;18.00;87.70;;;;;;5003316;28;20042;-79
2024/04/06 10:48:28;;;;;;;4.93;3.08;;;18.10;87.80;;;;;;5002561;28;20076;-79
2024/04/06 10:50:53;;;;;;;4.28;2.65;;;18.20;88.00;;;;;;5005622;28;20566;-80
2024/04/06 10:53:19;;;;;;;5.55;2.55;;;18.30;88.50;;;;;;4988009;28;21115;-80
2024/04/06 10:55:46;;;;;;;7.72;2.92;;;18.30;88.80;;;;;;5004538;28;20046;-80
2024/04/06 10:58:11;;;;;;;4.60;2.10;;;18.30;89.00;;;;;;5005228;28;20470;-79
2024/04/06 11:00:40;;;;;;;7.30;3.20;;;18.30;88.80;;;;;;5031647;28;20550;-79
2024/04/06 11:03:07;;;;;;;3.30;2.70;;;18.30;88.80;;;;;;4654902;28;9999676;-80
2024/04/06 11:05:37;;;;;;;3.30;2.50;;;18.30;88.20;;;;;;5030554;28;20048;-80
2024/04/06 11:08:06;;;;;;;2.97;2.00;;;18.30;87.80;;;;;;5000623;28;20072;-80
2024/04/06 11:10:32;;;;;;;3.17;2.25;;;18.30;87.50;;;;;;5000860;28;20050;-79
2024/04/06 11:12:58;;;;;;;3.65;2.40;;;18.30;87.60;;;;;;5004924;28;20851;-79
2024/04/06 11:15:27;;;;;;;3.08;2.00;;;18.40;87.30;;;;;;5000964;28;20762;-78
2024/04/06 11:17:57;;;;;;;3.47;2.08;;;18.30;86.90;;;;;;5002875;28;20054;-78
2024/04/06 11:20:22;;;;;;;2.65;1.83;;;18.40;87.20;;;;;;4998534;28;20048;-79
2024/04/06 11:22:48;;;;;;;4.03;2.15;;;18.40;87.00;;;;;;5003269;28;20033;-79
2024/04/06 11:25:15;;;;;;;2.92;1.90;;;18.40;86.90;;;;;;5001426;28;20069;-79
2024/04/06 11:27:49;;;;;;;2.60;2.05;;;18.40;87.10;;;;;;4999538;28;20107;-79
2024/04/06 11:30:18;;;;;;;3.30;1.50;;;18.40;87.00;;;;;;5027790;28;20096;-79
2024/04/06 11:32:44;;;;;;;5.28;1.83;;;18.40;87.00;;;;;;4999916;28;20061;-79
2024/04/06 11:35:09;;;;;;;2.42;1.58;;;18.50;86.90;;;;;;5001664;28;20515;-79
2024/04/06 11:37:35;;;;;;;2.90;1.52;;;18.50;86.90;;;;;;5001705;28;20054;-79
2024/04/06 11:40:01;;;;;;;3.47;1.58;;;18.50;86.80;;;;;;4995886;28;20519;-78
2024/04/06 11:42:26;;;;;;;1.95;1.83;;;18.50;86.80;;;;;;5001253;28;20029;-78
2024/04/06 11:44:52;;;;;;;3.33;1.80;;;18.50;86.80;;;;;;4967264;28;20125;-77
2024/04/06 11:47:17;;;;;;;2.83;1.60;;;18.50;84.90;;;;;;4999633;28;20049;-78
2024/04/06 11:49:43;;;;;;;2.20;1.50;;;18.50;83.10;;;;;;5001657;28;20049;-78
2024/04/06 11:52:09;;;;;;;3.65;1.60;;;18.60;82.50;;;;;;5002319;28;20061;-79
2024/04/06 11:54:36;;;;;;;2.65;1.23;;;18.70;83.60;;;;;;5000854;28;20053;-79
2024/04/06 11:57:01;;;;;;;1.33;1.20;;;18.70;82.00;;;;;;4997735;28;20092;-79
2024/04/06 11:59:27;;;;;;;1.80;1.40;;;18.70;83.30;;;;;;5029374;28;20470;-79
2024/04/06 12:01:53;;;;;;;3.10;1.40;;;18.60;82.70;;;;;;4989322;28;20054;-80
2024/04/06 12:04:19;;;;;;;1.83;1.25;;;18.70;83.80;;;;;;5004832;28;20050;-80
2024/04/06 12:06:44;;;;;;;2.03;1.40;;;18.60;84.50;;;;;;5006539;28;20065;-80
2024/04/06 12:09:10;;;;;;;1.50;1.30;;;18.50;85.10;;;;;;4986511;28;20057;-79
2024/04/06 12:11:36;;;;;;;1.63;1.40;;;18.50;85.20;;;;;;5001622;28;20104;-80
2024/04/06 12:14:03;;;;;;;1.70;1.50;;;18.50;85.70;;;;;;5019758;28;20093;-80
2024/04/06 12:16:28;;;;;;;1.50;1.40;;;18.50;85.00;;;;;;5031984;28;20064;-80
2024/04/06 12:18:55;;;;;;;1.42;1.33;;;18.40;84.60;;;;;;5005841;28;21193;-80
2024/04/06 12:21:20;;;;;;;2.58;1.40;;;18.40;84.50;;;;;;5005057;28;20046;-80
2024/04/06 12:23:46;;;;;;;3.10;1.70;;;18.40;85.20;;;;;;5005110;28;20056;-80
2024/04/06 12:26:11;;;;;;;1.70;1.60;;;18.40;86.70;;;;;;4988876;28;20121;-80
2024/04/06 12:28:38;;;;;;;2.38;1.42;;;18.30;88.80;;;;;;5003973;28;20542;-80
2024/04/06 12:31:04;;;;;;;1.80;1.30;;;18.40;86.70;;;;;;5004921;28;20111;-80
2024/04/06 12:33:29;;;;;;;2.55;1.20;;;18.30;86.70;;;;;;5001217;28;20506;-80
2024/04/06 12:35:55;;;;;;;1.35;1.05;;;18.30;86.70;;;;;;4986431;28;20049;-80
2024/04/06 12:38:21;;;;;;;1.30;1.20;;;18.40;86.40;;;;;;5030482;28;20520;-80
2024/04/06 12:40:46;;;;;;;1.63;1.30;;;18.40;86.00;;;;;;5004804;28;20045;-80